METAR Data
IDs: Format: Raw Decoded Include TAF

Data at: 0046 UTC 24 May 2019

NZWN 240030Z AUTO 01020KT 9999 SCT021/// BKN026/// 16/11 Q1024 NOSIG
NZWN 240000Z AUTO 01018KT 9999 BKN020/// OVC028/// 15/12 Q1024 NOSIG
NZWN 232330Z AUTO 01018KT 9999 FEW021/// BKN031/// 16/12 Q1025 NOSIG
NZWN 232300Z AUTO 01016KT 9999 SCT017/// BKN024/// OVC032/// 15/12 Q1025 NOSIG
NZWN 232230Z AUTO 02017KT 9999 SCT020/// BKN026/// BKN035/// 15/12 Q1025 NOSIG
NZWN 232200Z AUTO 01017KT 9999 BKN018/// BKN024/// BKN041/// 15/12 Q1025 NOSIG

TAF NZWN 232306Z 2400/2500 36018G30KT 9999 SCT018 BKN025